sensor_id;sensor_type;location;lat;lon;timestamp;temperature;humidity
28069;DHT22;15382;47.578;8.086;2023-08-20T00:04:23;20.40;99.90
28069;DHT22;15382;47.578;8.086;2023-08-20T00:24:45;19.90;99.90
28069;DHT22;15382;47.578;8.086;2023-08-20T00:34:46;19.80;99.90
28069;DHT22;15382;47.578;8.086;2023-08-20T00:44:46;19.90;99.90
28069;DHT22;15382;47.578;8.086;2023-08-20T00:54:48;19.60;99.90
28069;DHT22;15382;47.578;8.086;2023-08-20T01:04:48;19.50;99.90
28069;DHT22;15382;47.578;8.086;2023-08-20T01:14:49;19.30;99.90
28069;DHT22;15382;47.578;8.086;2023-08-20T01:35:06;19.30;99.90
28069;DHT22;15382;47.578;8.086;2023-08-20T01:45:07;19.30;99.90
28069;DHT22;15382;47.578;8.086;2023-08-20T01:55:08;19.00;99.90
28069;DHT22;15382;47.578;8.086;2023-08-20T02:05:08;19.00;99.90
28069;DHT22;15382;47.578;8.086;2023-08-20T02:15:12;18.70;99.90
28069;DHT22;15382;47.578;8.086;2023-08-20T02:25:13;18.70;99.90
28069;DHT22;15382;47.578;8.086;2023-08-20T02:35:14;18.70;99.90
28069;DHT22;15382;47.578;8.086;2023-08-20T02:45:16;18.70;99.90
28069;DHT22;15382;47.578;8.086;2023-08-20T02:55:17;18.50;99.90
28069;DHT22;15382;47.578;8.086;2023-08-20T03:05:20;18.30;99.90
28069;DHT22;15382;47.578;8.086;2023-08-20T03:15:20;18.30;99.90
28069;DHT22;15382;47.578;8.086;2023-08-20T03:25:21;18.20;99.90
28069;DHT22;15382;47.578;8.086;2023-08-20T03:35:22;18.10;99.90
28069;DHT22;15382;47.578;8.086;2023-08-20T03:45:22;18.30;99.90
28069;DHT22;15382;47.578;8.086;2023-08-20T03:55:23;18.30;99.90
28069;DHT22;15382;47.578;8.086;2023-08-20T04:05:24;17.90;99.90
28069;DHT22;15382;47.578;8.086;2023-08-20T04:15:24;18.00;99.90
28069;DHT22;15382;47.578;8.086;2023-08-20T04:25:26;18.00;99.90
28069;DHT22;15382;47.578;8.086;2023-08-20T04:35:27;17.70;99.90
28069;DHT22;15382;47.578;8.086;2023-08-20T04:45:28;17.90;99.90
28069;DHT22;15382;47.578;8.086;2023-08-20T04:55:29;18.10;99.90
28069;DHT22;15382;47.578;8.086;2023-08-20T05:05:30;18.10;99.90
28069;DHT22;15382;47.578;8.086;2023-08-20T05:15:31;18.40;99.90
28069;DHT22;15382;47.578;8.086;2023-08-20T05:25:32;18.60;99.90
28069;DHT22;15382;47.578;8.086;2023-08-20T05:35:32;18.80;99.90
28069;DHT22;15382;47.578;8.086;2023-08-20T05:45:33;18.90;99.90
28069;DHT22;15382;47.578;8.086;2023-08-20T05:55:34;18.70;99.90
28069;DHT22;15382;47.578;8.086;2023-08-20T06:05:35;18.90;99.90
28069;DHT22;15382;47.578;8.086;2023-08-20T06:15:35;19.50;99.90
28069;DHT22;15382;47.578;8.086;2023-08-20T06:25:36;20.60;99.90
28069;DHT22;15382;47.578;8.086;2023-08-20T06:35:37;20.70;99.90
28069;DHT22;15382;47.578;8.086;2023-08-20T06:45:38;21.50;99.90
28069;DHT22;15382;47.578;8.086;2023-08-20T06:55:38;22.40;99.90
28069;DHT22;15382;47.578;8.086;2023-08-20T07:05:39;22.70;99.90
28069;DHT22;15382;47.578;8.086;2023-08-20T07:15:39;23.40;99.90
28069;DHT22;15382;47.578;8.086;2023-08-20T07:25:40;24.20;99.90
28069;DHT22;15382;47.578;8.086;2023-08-20T07:35:41;25.20;99.90
28069;DHT22;15382;47.578;8.086;2023-08-20T07:45:42;26.30;99.90
28069;DHT22;15382;47.578;8.086;2023-08-20T07:55:42;27.00;99.90
28069;DHT22;15382;47.578;8.086;2023-08-20T08:05:47;27.30;99.90
28069;DHT22;15382;47.578;8.086;2023-08-20T08:15:48;27.50;99.90
28069;DHT22;15382;47.578;8.086;2023-08-20T08:25:49;27.90;99.90
28069;DHT22;15382;47.578;8.086;2023-08-20T08:35:50;28.00;99.90
28069;DHT22;15382;47.578;8.086;2023-08-20T08:45:51;29.20;99.90
28069;DHT22;15382;47.578;8.086;2023-08-20T08:55:52;29.20;99.90
28069;DHT22;15382;47.578;8.086;2023-08-20T09:05:57;30.30;99.90
28069;DHT22;15382;47.578;8.086;2023-08-20T09:15:59;30.40;99.90
28069;DHT22;15382;47.578;8.086;2023-08-20T09:26:03;31.00;99.90
28069;DHT22;15382;47.578;8.086;2023-08-20T09:36:04;30.60;99.90
28069;DHT22;15382;47.578;8.086;2023-08-20T09:46:05;32.00;99.90
28069;DHT22;15382;47.578;8.086;2023-08-20T09:56:09;32.50;99.90
28069;DHT22;15382;47.578;8.086;2023-08-20T10:06:10;32.50;99.90
28069;DHT22;15382;47.578;8.086;2023-08-20T10:16:11;33.00;99.90
28069;DHT22;15382;47.578;8.086;2023-08-20T10:26:12;32.60;99.90
28069;DHT22;15382;47.578;8.086;2023-08-20T10:36:15;33.60;98.70
28069;DHT22;15382;47.578;8.086;2023-08-20T10:56:17;35.20;96.40
28069;DHT22;15382;47.578;8.086;2023-08-20T11:06:18;35.50;94.80
28069;DHT22;15382;47.578;8.086;2023-08-20T11:16:18;35.70;94.80
28069;DHT22;15382;47.578;8.086;2023-08-20T11:26:19;34.80;93.70
28069;DHT22;15382;47.578;8.086;2023-08-20T11:36:20;35.60;92.10
28069;DHT22;15382;47.578;8.086;2023-08-20T11:46:22;35.40;92.50
28069;DHT22;15382;47.578;8.086;2023-08-20T11:56:23;37.00;90.30
28069;DHT22;15382;47.578;8.086;2023-08-20T12:06:23;36.70;89.00
28069;DHT22;15382;47.578;8.086;2023-08-20T12:16:24;36.60;90.00
28069;DHT22;15382;47.578;8.086;2023-08-20T12:26:27;36.60;89.20
28069;DHT22;15382;47.578;8.086;2023-08-20T12:36:28;36.20;84.70
28069;DHT22;15382;47.578;8.086;2023-08-20T12:46:28;37.00;82.30
28069;DHT22;15382;47.578;8.086;2023-08-20T12:56:29;37.40;84.70
28069;DHT22;15382;47.578;8.086;2023-08-20T13:06:30;38.00;81.70
28069;DHT22;15382;47.578;8.086;2023-08-20T13:16:30;37.20;79.70
28069;DHT22;15382;47.578;8.086;2023-08-20T13:26:39;36.10;80.60
28069;DHT22;15382;47.578;8.086;2023-08-20T13:36:39;37.10;77.50
28069;DHT22;15382;47.578;8.086;2023-08-20T13:46:40;37.10;79.20
28069;DHT22;15382;47.578;8.086;2023-08-20T13:56:41;36.60;79.90
28069;DHT22;15382;47.578;8.086;2023-08-20T14:06:41;36.20;78.90
28069;DHT22;15382;47.578;8.086;2023-08-20T14:16:42;36.80;78.10
28069;DHT22;15382;47.578;8.086;2023-08-20T14:26:42;35.90;80.70
28069;DHT22;15382;47.578;8.086;2023-08-20T14:36:43;36.40;78.40
28069;DHT22;15382;47.578;8.086;2023-08-20T14:46:44;36.00;78.30
28069;DHT22;15382;47.578;8.086;2023-08-20T14:56:44;36.10;79.90
28069;DHT22;15382;47.578;8.086;2023-08-20T15:06:45;35.50;80.30
28069;DHT22;15382;47.578;8.086;2023-08-20T15:16:46;36.10;83.90
28069;DHT22;15382;47.578;8.086;2023-08-20T15:26:47;35.50;81.70
28069;DHT22;15382;47.578;8.086;2023-08-20T15:36:48;35.00;84.10
28069;DHT22;15382;47.578;8.086;2023-08-20T15:46:48;34.90;85.50
28069;DHT22;15382;47.578;8.086;2023-08-20T15:56:49;35.40;86.30
28069;DHT22;15382;47.578;8.086;2023-08-20T16:06:50;35.50;86.50
28069;DHT22;15382;47.578;8.086;2023-08-20T16:16:50;35.10;87.70
28069;DHT22;15382;47.578;8.086;2023-08-20T16:26:52;34.60;86.30
28069;DHT22;15382;47.578;8.086;2023-08-20T16:36:53;34.30;90.50
28069;DHT22;15382;47.578;8.086;2023-08-20T16:46:54;34.30;90.40
28069;DHT22;15382;47.578;8.086;2023-08-20T16:56:55;33.60;92.20
28069;DHT22;15382;47.578;8.086;2023-08-20T17:06:55;33.40;93.70
28069;DHT22;15382;47.578;8.086;2023-08-20T17:16:56;33.00;95.30
28069;DHT22;15382;47.578;8.086;2023-08-20T17:26:57;32.80;97.20
28069;DHT22;15382;47.578;8.086;2023-08-20T17:36:58;32.60;97.70
28069;DHT22;15382;47.578;8.086;2023-08-20T17:46:58;32.30;99.10
28069;DHT22;15382;47.578;8.086;2023-08-20T17:56:59;31.90;99.90
28069;DHT22;15382;47.578;8.086;2023-08-20T18:07:00;31.60;99.90
28069;DHT22;15382;47.578;8.086;2023-08-20T18:17:00;31.30;99.90
28069;DHT22;15382;47.578;8.086;2023-08-20T18:27:01;30.50;99.90
28069;DHT22;15382;47.578;8.086;2023-08-20T18:37:02;29.80;99.90
28069;DHT22;15382;47.578;8.086;2023-08-20T18:47:03;29.50;99.90
28069;DHT22;15382;47.578;8.086;2023-08-20T18:57:04;28.80;99.90
28069;DHT22;15382;47.578;8.086;2023-08-20T19:07:06;28.70;99.90
28069;DHT22;15382;47.578;8.086;2023-08-20T19:17:07;28.10;99.90
28069;DHT22;15382;47.578;8.086;2023-08-20T19:27:07;27.90;99.90
28069;DHT22;15382;47.578;8.086;2023-08-20T19:37:08;27.40;99.90
28069;DHT22;15382;47.578;8.086;2023-08-20T19:47:09;26.80;99.90
28069;DHT22;15382;47.578;8.086;2023-08-20T19:57:10;26.60;99.90
28069;DHT22;15382;47.578;8.086;2023-08-20T20:07:11;26.40;99.90
28069;DHT22;15382;47.578;8.086;2023-08-20T20:17:12;26.00;99.90
28069;DHT22;15382;47.578;8.086;2023-08-20T20:27:13;25.70;99.90
28069;DHT22;15382;47.578;8.086;2023-08-20T20:37:13;25.40;99.90
28069;DHT22;15382;47.578;8.086;2023-08-20T20:47:14;24.90;99.90
28069;DHT22;15382;47.578;8.086;2023-08-20T20:57:15;24.80;99.90
28069;DHT22;15382;47.578;8.086;2023-08-20T21:07:15;24.50;99.90
28069;DHT22;15382;47.578;8.086;2023-08-20T21:17:16;24.50;99.90
28069;DHT22;15382;47.578;8.086;2023-08-20T21:27:16;24.40;99.90
28069;DHT22;15382;47.578;8.086;2023-08-20T21:37:17;24.20;99.90
28069;DHT22;15382;47.578;8.086;2023-08-20T21:47:24;24.00;99.90
28069;DHT22;15382;47.578;8.086;2023-08-20T21:57:25;23.70;99.90
28069;DHT22;15382;47.578;8.086;2023-08-20T22:07:26;23.60;99.90
28069;DHT22;15382;47.578;8.086;2023-08-20T22:17:28;23.50;99.90
28069;DHT22;15382;47.578;8.086;2023-08-20T22:27:28;23.30;99.90
28069;DHT22;15382;47.578;8.086;2023-08-20T22:37:29;23.10;99.90
28069;DHT22;15382;47.578;8.086;2023-08-20T22:47:30;23.10;99.90
28069;DHT22;15382;47.578;8.086;2023-08-20T22:57:30;23.10;99.90
28069;DHT22;15382;47.578;8.086;2023-08-20T23:07:31;22.80;99.90
28069;DHT22;15382;47.578;8.086;2023-08-20T23:17:31;22.70;99.90
28069;DHT22;15382;47.578;8.086;2023-08-20T23:27:32;22.60;99.90
28069;DHT22;15382;47.578;8.086;2023-08-20T23:37:33;22.40;99.90
28069;DHT22;15382;47.578;8.086;2023-08-20T23:47:34;22.30;99.90
28069;DHT22;15382;47.578;8.086;2023-08-20T23:57:34;22.10;99.90
